sensor_id;sensor_type;location;lat;lon;timestamp;temperature;humidity
17495;DHT22;8864;51.970;4.614;2023-09-19T00:00:27;23.20;75.80
17495;DHT22;8864;51.970;4.614;2023-09-19T00:02:54;23.20;75.70
17495;DHT22;8864;51.970;4.614;2023-09-19T00:05:25;23.20;75.70
17495;DHT22;8864;51.970;4.614;2023-09-19T00:07:54;23.20;75.70
17495;DHT22;8864;51.970;4.614;2023-09-19T00:10:22;23.20;75.60
17495;DHT22;8864;51.970;4.614;2023-09-19T00:12:51;23.20;75.60
17495;DHT22;8864;51.970;4.614;2023-09-19T00:15:21;23.20;75.50
17495;DHT22;8864;51.970;4.614;2023-09-19T00:17:51;23.20;75.60
17495;DHT22;8864;51.970;4.614;2023-09-19T00:20:19;23.20;75.50
17495;DHT22;8864;51.970;4.614;2023-09-19T00:22:48;23.20;75.50
17495;DHT22;8864;51.970;4.614;2023-09-19T00:25:16;23.20;75.50
17495;DHT22;8864;51.970;4.614;2023-09-19T00:27:44;23.20;75.50
17495;DHT22;8864;51.970;4.614;2023-09-19T00:30:13;23.20;75.40
17495;DHT22;8864;51.970;4.614;2023-09-19T00:32:45;23.20;75.30
17495;DHT22;8864;51.970;4.614;2023-09-19T00:35:17;23.20;75.30
17495;DHT22;8864;51.970;4.614;2023-09-19T00:37:44;23.20;75.30
17495;DHT22;8864;51.970;4.614;2023-09-19T00:40:11;23.20;75.20
17495;DHT22;8864;51.970;4.614;2023-09-19T00:42:41;23.20;75.20
17495;DHT22;8864;51.970;4.614;2023-09-19T00:45:09;23.20;75.10
17495;DHT22;8864;51.970;4.614;2023-09-19T00:47:38;23.20;75.00
17495;DHT22;8864;51.970;4.614;2023-09-19T00:50:08;23.20;75.00
17495;DHT22;8864;51.970;4.614;2023-09-19T00:52:42;23.20;75.00
17495;DHT22;8864;51.970;4.614;2023-09-19T00:55:11;23.20;74.90
17495;DHT22;8864;51.970;4.614;2023-09-19T00:57:39;23.20;74.80
17495;DHT22;8864;51.970;4.614;2023-09-19T01:00:08;23.20;74.80
17495;DHT22;8864;51.970;4.614;2023-09-19T01:02:43;23.20;74.70
17495;DHT22;8864;51.970;4.614;2023-09-19T01:05:11;23.30;74.60
17495;DHT22;8864;51.970;4.614;2023-09-19T01:07:41;23.10;75.30
17495;DHT22;8864;51.970;4.614;2023-09-19T01:10:11;23.20;74.50
17495;DHT22;8864;51.970;4.614;2023-09-19T01:12:47;23.10;74.40
17495;DHT22;8864;51.970;4.614;2023-09-19T01:15:24;23.10;74.40
17495;DHT22;8864;51.970;4.614;2023-09-19T01:18:02;23.10;74.20
17495;DHT22;8864;51.970;4.614;2023-09-19T01:20:36;23.10;74.00
17495;DHT22;8864;51.970;4.614;2023-09-19T01:23:12;23.10;74.00
17495;DHT22;8864;51.970;4.614;2023-09-19T01:26:04;23.10;73.80
17495;DHT22;8864;51.970;4.614;2023-09-19T01:28:43;23.30;73.70
17495;DHT22;8864;51.970;4.614;2023-09-19T01:31:15;23.10;73.70
17495;DHT22;8864;51.970;4.614;2023-09-19T01:33:56;23.10;73.70
17495;DHT22;8864;51.970;4.614;2023-09-19T01:36:26;23.10;73.60
17495;DHT22;8864;51.970;4.614;2023-09-19T01:38:55;23.10;73.60
17495;DHT22;8864;51.970;4.614;2023-09-19T01:41:29;23.10;74.30
17495;DHT22;8864;51.970;4.614;2023-09-19T01:44:06;23.10;73.60
17495;DHT22;8864;51.970;4.614;2023-09-19T01:46:40;23.10;73.60
17495;DHT22;8864;51.970;4.614;2023-09-19T01:49:25;23.10;73.60
17495;DHT22;8864;51.970;4.614;2023-09-19T01:52:02;23.10;73.60
17495;DHT22;8864;51.970;4.614;2023-09-19T01:54:36;23.10;73.60
17495;DHT22;8864;51.970;4.614;2023-09-19T01:57:12;23.00;73.50
17495;DHT22;8864;51.970;4.614;2023-09-19T01:59:48;23.10;73.70
17495;DHT22;8864;51.970;4.614;2023-09-19T02:02:20;23.10;73.60
17495;DHT22;8864;51.970;4.614;2023-09-19T02:04:48;23.00;73.50
17495;DHT22;8864;51.970;4.614;2023-09-19T02:07:16;23.00;73.50
17495;DHT22;8864;51.970;4.614;2023-09-19T02:09:43;23.00;73.50
17495;DHT22;8864;51.970;4.614;2023-09-19T02:12:10;23.10;73.50
17495;DHT22;8864;51.970;4.614;2023-09-19T02:14:37;23.00;73.40
17495;DHT22;8864;51.970;4.614;2023-09-19T02:17:04;23.00;73.50
17495;DHT22;8864;51.970;4.614;2023-09-19T02:19:37;23.00;73.50
17495;DHT22;8864;51.970;4.614;2023-09-19T02:22:04;23.00;73.50
17495;DHT22;8864;51.970;4.614;2023-09-19T02:24:33;23.00;73.50
17495;DHT22;8864;51.970;4.614;2023-09-19T02:27:00;23.00;73.50
17495;DHT22;8864;51.970;4.614;2023-09-19T02:29:30;23.00;73.30
17495;DHT22;8864;51.970;4.614;2023-09-19T02:31:56;23.00;73.40
17495;DHT22;8864;51.970;4.614;2023-09-19T02:34:24;23.00;74.10
17495;DHT22;8864;51.970;4.614;2023-09-19T02:36:52;23.00;73.30
17495;DHT22;8864;51.970;4.614;2023-09-19T02:39:21;23.00;73.30
17495;DHT22;8864;51.970;4.614;2023-09-19T02:41:49;23.00;73.30
17495;DHT22;8864;51.970;4.614;2023-09-19T02:44:16;23.00;73.30
17495;DHT22;8864;51.970;4.614;2023-09-19T02:46:45;23.00;73.30
17495;DHT22;8864;51.970;4.614;2023-09-19T02:49:13;23.00;73.20
17495;DHT22;8864;51.970;4.614;2023-09-19T02:51:40;22.90;73.20
17495;DHT22;8864;51.970;4.614;2023-09-19T02:54:09;22.90;73.20
17495;DHT22;8864;51.970;4.614;2023-09-19T02:56:37;22.90;73.20
17495;DHT22;8864;51.970;4.614;2023-09-19T02:59:04;22.90;73.10
17495;DHT22;8864;51.970;4.614;2023-09-19T03:01:31;22.90;73.10
17495;DHT22;8864;51.970;4.614;2023-09-19T03:03:59;22.90;73.00
17495;DHT22;8864;51.970;4.614;2023-09-19T03:06:26;23.00;73.10
17495;DHT22;8864;51.970;4.614;2023-09-19T03:08:53;22.90;73.10
17495;DHT22;8864;51.970;4.614;2023-09-19T03:11:23;22.90;73.10
17495;DHT22;8864;51.970;4.614;2023-09-19T03:13:53;22.90;73.10
17495;DHT22;8864;51.970;4.614;2023-09-19T03:16:21;22.90;73.20
17495;DHT22;8864;51.970;4.614;2023-09-19T03:18:48;22.90;73.20
17495;DHT22;8864;51.970;4.614;2023-09-19T03:21:15;22.80;73.00
17495;DHT22;8864;51.970;4.614;2023-09-19T03:23:45;22.90;73.10
17495;DHT22;8864;51.970;4.614;2023-09-19T03:26:13;22.80;73.00
17495;DHT22;8864;51.970;4.614;2023-09-19T03:28:43;22.80;73.00
17495;DHT22;8864;51.970;4.614;2023-09-19T03:31:13;22.80;73.00
17495;DHT22;8864;51.970;4.614;2023-09-19T03:33:40;22.80;73.00
17495;DHT22;8864;51.970;4.614;2023-09-19T03:36:07;22.80;73.00
17495;DHT22;8864;51.970;4.614;2023-09-19T03:38:35;22.80;73.00
17495;DHT22;8864;51.970;4.614;2023-09-19T03:41:02;22.80;73.00
17495;DHT22;8864;51.970;4.614;2023-09-19T03:43:29;22.80;73.00
17495;DHT22;8864;51.970;4.614;2023-09-19T03:46:01;22.80;73.10
17495;DHT22;8864;51.970;4.614;2023-09-19T03:48:29;22.80;73.00
17495;DHT22;8864;51.970;4.614;2023-09-19T03:50:56;22.80;72.90
17495;DHT22;8864;51.970;4.614;2023-09-19T03:53:23;22.80;72.90
17495;DHT22;8864;51.970;4.614;2023-09-19T03:55:50;22.80;72.90
17495;DHT22;8864;51.970;4.614;2023-09-19T03:58:17;22.80;72.90
17495;DHT22;8864;51.970;4.614;2023-09-19T04:00:44;22.70;72.80
17495;DHT22;8864;51.970;4.614;2023-09-19T04:03:13;22.80;72.80
17495;DHT22;8864;51.970;4.614;2023-09-19T04:05:45;22.80;72.80
17495;DHT22;8864;51.970;4.614;2023-09-19T04:08:12;22.80;72.70
17495;DHT22;8864;51.970;4.614;2023-09-19T04:10:42;22.80;72.70
17495;DHT22;8864;51.970;4.614;2023-09-19T04:13:09;22.80;72.70
17495;DHT22;8864;51.970;4.614;2023-09-19T04:15:36;22.80;72.70
17495;DHT22;8864;51.970;4.614;2023-09-19T04:18:03;22.70;72.60
17495;DHT22;8864;51.970;4.614;2023-09-19T04:20:33;22.80;72.70
17495;DHT22;8864;51.970;4.614;2023-09-19T04:23:00;22.70;72.70
17495;DHT22;8864;51.970;4.614;2023-09-19T04:25:27;22.80;72.60
17495;DHT22;8864;51.970;4.614;2023-09-19T04:27:54;22.70;72.70
17495;DHT22;8864;51.970;4.614;2023-09-19T04:30:21;22.70;72.70
17495;DHT22;8864;51.970;4.614;2023-09-19T04:32:48;22.70;72.60
17495;DHT22;8864;51.970;4.614;2023-09-19T04:35:16;22.70;72.60
17495;DHT22;8864;51.970;4.614;2023-09-19T04:37:45;22.70;72.60
17495;DHT22;8864;51.970;4.614;2023-09-19T04:40:13;22.70;72.60
17495;DHT22;8864;51.970;4.614;2023-09-19T04:42:43;22.70;72.60
17495;DHT22;8864;51.970;4.614;2023-09-19T04:45:10;22.70;72.60
17495;DHT22;8864;51.970;4.614;2023-09-19T04:47:38;22.70;72.60
17495;DHT22;8864;51.970;4.614;2023-09-19T04:50:07;22.70;72.60
17495;DHT22;8864;51.970;4.614;2023-09-19T04:52:38;22.70;72.60
17495;DHT22;8864;51.970;4.614;2023-09-19T04:55:09;22.70;72.60
17495;DHT22;8864;51.970;4.614;2023-09-19T04:57:36;22.70;72.70
17495;DHT22;8864;51.970;4.614;2023-09-19T05:00:06;22.70;72.60
17495;DHT22;8864;51.970;4.614;2023-09-19T05:02:38;22.70;72.70
17495;DHT22;8864;51.970;4.614;2023-09-19T05:05:06;22.70;72.70
17495;DHT22;8864;51.970;4.614;2023-09-19T05:07:33;22.70;72.70
17495;DHT22;8864;51.970;4.614;2023-09-19T05:10:02;22.70;72.60
17495;DHT22;8864;51.970;4.614;2023-09-19T05:12:33;22.70;72.70
17495;DHT22;8864;51.970;4.614;2023-09-19T05:15:02;22.70;72.60
17495;DHT22;8864;51.970;4.614;2023-09-19T05:17:29;22.70;72.70
17495;DHT22;8864;51.970;4.614;2023-09-19T05:19:56;22.70;72.60
17495;DHT22;8864;51.970;4.614;2023-09-19T05:22:27;22.70;72.50
17495;DHT22;8864;51.970;4.614;2023-09-19T05:24:54;22.70;72.30
17495;DHT22;8864;51.970;4.614;2023-09-19T05:27:21;22.70;72.90
17495;DHT22;8864;51.970;4.614;2023-09-19T05:29:50;22.70;72.10
17495;DHT22;8864;51.970;4.614;2023-09-19T05:32:19;22.70;71.90
17495;DHT22;8864;51.970;4.614;2023-09-19T05:34:46;22.70;71.80
17495;DHT22;8864;51.970;4.614;2023-09-19T05:37:13;22.70;71.60
17495;DHT22;8864;51.970;4.614;2023-09-19T05:39:42;22.70;71.50
17495;DHT22;8864;51.970;4.614;2023-09-19T05:42:09;22.70;71.50
17495;DHT22;8864;51.970;4.614;2023-09-19T05:44:36;22.70;71.30
17495;DHT22;8864;51.970;4.614;2023-09-19T05:47:05;22.70;71.20
17495;DHT22;8864;51.970;4.614;2023-09-19T05:49:34;22.70;71.20
17495;DHT22;8864;51.970;4.614;2023-09-19T05:52:04;22.70;71.20
17495;DHT22;8864;51.970;4.614;2023-09-19T05:54:32;22.70;71.00
17495;DHT22;8864;51.970;4.614;2023-09-19T05:56:59;22.70;71.00
17495;DHT22;8864;51.970;4.614;2023-09-19T05:59:27;22.70;70.90
17495;DHT22;8864;51.970;4.614;2023-09-19T06:01:54;22.70;70.80
17495;DHT22;8864;51.970;4.614;2023-09-19T06:04:25;22.70;70.70
17495;DHT22;8864;51.970;4.614;2023-09-19T06:06:52;22.70;70.70
17495;DHT22;8864;51.970;4.614;2023-09-19T06:09:19;22.70;70.60
17495;DHT22;8864;51.970;4.614;2023-09-19T06:11:47;22.70;70.60
17495;DHT22;8864;51.970;4.614;2023-09-19T06:14:14;22.70;70.40
17495;DHT22;8864;51.970;4.614;2023-09-19T06:16:43;22.70;70.40
17495;DHT22;8864;51.970;4.614;2023-09-19T06:19:11;22.70;70.40
17495;DHT22;8864;51.970;4.614;2023-09-19T06:21:39;22.70;70.30
17495;DHT22;8864;51.970;4.614;2023-09-19T06:24:06;22.70;70.30
17495;DHT22;8864;51.970;4.614;2023-09-19T06:26:33;22.60;70.20
17495;DHT22;8864;51.970;4.614;2023-09-19T06:29:00;22.70;70.20
17495;DHT22;8864;51.970;4.614;2023-09-19T06:31:33;22.70;70.10
17495;DHT22;8864;51.970;4.614;2023-09-19T06:34:00;22.70;70.10
17495;DHT22;8864;51.970;4.614;2023-09-19T06:36:28;22.70;70.10
17495;DHT22;8864;51.970;4.614;2023-09-19T06:38:58;22.70;70.00
17495;DHT22;8864;51.970;4.614;2023-09-19T06:41:25;22.70;70.00
17495;DHT22;8864;51.970;4.614;2023-09-19T06:43:52;22.70;70.00
17495;DHT22;8864;51.970;4.614;2023-09-19T06:46:20;22.70;70.00
17495;DHT22;8864;51.970;4.614;2023-09-19T06:48:47;22.70;70.70
17495;DHT22;8864;51.970;4.614;2023-09-19T06:51:15;22.70;69.90
17495;DHT22;8864;51.970;4.614;2023-09-19T06:53:42;22.70;69.90
17495;DHT22;8864;51.970;4.614;2023-09-19T06:56:11;22.70;69.90
17495;DHT22;8864;51.970;4.614;2023-09-19T06:58:38;22.70;69.90
17495;DHT22;8864;51.970;4.614;2023-09-19T07:01:05;22.70;69.90
17495;DHT22;8864;51.970;4.614;2023-09-19T07:03:32;22.70;70.00
17495;DHT22;8864;51.970;4.614;2023-09-19T07:05:59;22.70;70.00
17495;DHT22;8864;51.970;4.614;2023-09-19T07:08:26;22.70;70.10
17495;DHT22;8864;51.970;4.614;2023-09-19T07:10:53;22.70;70.20
17495;DHT22;8864;51.970;4.614;2023-09-19T07:13:24;22.60;70.30
17495;DHT22;8864;51.970;4.614;2023-09-19T07:15:51;22.60;70.40
17495;DHT22;8864;51.970;4.614;2023-09-19T07:18:18;22.50;70.30
17495;DHT22;8864;51.970;4.614;2023-09-19T07:20:46;22.70;70.50
17495;DHT22;8864;51.970;4.614;2023-09-19T07:23:15;22.70;70.50
17495;DHT22;8864;51.970;4.614;2023-09-19T07:25:43;22.60;70.60
17495;DHT22;8864;51.970;4.614;2023-09-19T07:28:12;22.60;70.60
17495;DHT22;8864;51.970;4.614;2023-09-19T07:30:40;22.60;70.70
17495;DHT22;8864;51.970;4.614;2023-09-19T07:33:08;22.60;70.70
17495;DHT22;8864;51.970;4.614;2023-09-19T07:35:37;22.60;71.20
17495;DHT22;8864;51.970;4.614;2023-09-19T07:38:08;22.70;71.50
17495;DHT22;8864;51.970;4.614;2023-09-19T07:40:36;22.60;71.50
17495;DHT22;8864;51.970;4.614;2023-09-19T07:43:03;22.60;71.60
17495;DHT22;8864;51.970;4.614;2023-09-19T07:45:30;22.60;72.70
17495;DHT22;8864;51.970;4.614;2023-09-19T07:47:59;22.70;72.70
17495;DHT22;8864;51.970;4.614;2023-09-19T07:50:27;22.70;72.60
17495;DHT22;8864;51.970;4.614;2023-09-19T07:52:54;22.60;72.40
17495;DHT22;8864;51.970;4.614;2023-09-19T07:55:22;22.70;72.60
17495;DHT22;8864;51.970;4.614;2023-09-19T07:57:51;22.70;72.40
17495;DHT22;8864;51.970;4.614;2023-09-19T08:00:18;22.70;72.30
17495;DHT22;8864;51.970;4.614;2023-09-19T08:02:45;22.70;72.10
17495;DHT22;8864;51.970;4.614;2023-09-19T08:05:15;22.60;72.00
17495;DHT22;8864;51.970;4.614;2023-09-19T08:07:44;22.70;72.00
17495;DHT22;8864;51.970;4.614;2023-09-19T08:10:14;22.70;71.90
17495;DHT22;8864;51.970;4.614;2023-09-19T08:12:46;22.70;71.80
17495;DHT22;8864;51.970;4.614;2023-09-19T08:15:13;22.70;71.80
17495;DHT22;8864;51.970;4.614;2023-09-19T08:17:41;22.70;71.70
17495;DHT22;8864;51.970;4.614;2023-09-19T08:20:09;22.70;71.80
17495;DHT22;8864;51.970;4.614;2023-09-19T08:22:46;22.70;71.60
17495;DHT22;8864;51.970;4.614;2023-09-19T08:25:18;22.70;71.60
17495;DHT22;8864;51.970;4.614;2023-09-19T08:27:45;22.70;71.50
17495;DHT22;8864;51.970;4.614;2023-09-19T08:30:13;22.70;71.60
17495;DHT22;8864;51.970;4.614;2023-09-19T08:32:41;22.60;71.40
17495;DHT22;8864;51.970;4.614;2023-09-19T08:35:09;22.70;71.50
17495;DHT22;8864;51.970;4.614;2023-09-19T08:37:37;22.70;71.50
17495;DHT22;8864;51.970;4.614;2023-09-19T08:40:06;22.70;71.40
17495;DHT22;8864;51.970;4.614;2023-09-19T08:42:48;22.70;71.30
17495;DHT22;8864;51.970;4.614;2023-09-19T08:45:16;22.70;71.20
17495;DHT22;8864;51.970;4.614;2023-09-19T08:47:49;22.70;71.20
17495;DHT22;8864;51.970;4.614;2023-09-19T08:50:22;22.70;71.20
17495;DHT22;8864;51.970;4.614;2023-09-19T08:52:55;22.70;71.00
17495;DHT22;8864;51.970;4.614;2023-09-19T08:55:28;22.70;70.90
17495;DHT22;8864;51.970;4.614;2023-09-19T08:58:00;22.70;70.90
17495;DHT22;8864;51.970;4.614;2023-09-19T09:00:29;22.70;70.80
17495;DHT22;8864;51.970;4.614;2023-09-19T09:02:58;22.60;70.70
17495;DHT22;8864;51.970;4.614;2023-09-19T09:05:27;22.70;70.80
17495;DHT22;8864;51.970;4.614;2023-09-19T09:07:55;22.70;70.70
17495;DHT22;8864;51.970;4.614;2023-09-19T09:10:25;22.70;70.70
17495;DHT22;8864;51.970;4.614;2023-09-19T09:12:53;22.70;70.70
17495;DHT22;8864;51.970;4.614;2023-09-19T09:15:22;22.70;70.70
17495;DHT22;8864;51.970;4.614;2023-09-19T09:17:49;22.70;70.70
17495;DHT22;8864;51.970;4.614;2023-09-19T09:20:18;22.70;70.70
17495;DHT22;8864;51.970;4.614;2023-09-19T09:22:52;22.80;70.70
17495;DHT22;8864;51.970;4.614;2023-09-19T09:25:20;22.80;70.90
17495;DHT22;8864;51.970;4.614;2023-09-19T09:28:00;22.80;71.00
17495;DHT22;8864;51.970;4.614;2023-09-19T09:30:34;22.80;71.00
17495;DHT22;8864;51.970;4.614;2023-09-19T09:33:09;22.70;70.90
17495;DHT22;8864;51.970;4.614;2023-09-19T09:35:37;22.80;70.90
17495;DHT22;8864;51.970;4.614;2023-09-19T09:38:06;22.80;70.90
17495;DHT22;8864;51.970;4.614;2023-09-19T09:40:46;22.80;70.80
17495;DHT22;8864;51.970;4.614;2023-09-19T09:43:36;22.80;70.70
17495;DHT22;8864;51.970;4.614;2023-09-19T09:46:09;22.80;70.60
17495;DHT22;8864;51.970;4.614;2023-09-19T09:48:59;22.80;70.70
17495;DHT22;8864;51.970;4.614;2023-09-19T09:51:42;22.80;70.60
17495;DHT22;8864;51.970;4.614;2023-09-19T09:54:13;22.80;70.60
17495;DHT22;8864;51.970;4.614;2023-09-19T09:56:54;22.80;70.60
17495;DHT22;8864;51.970;4.614;2023-09-19T09:59:50;22.80;70.70
17495;DHT22;8864;51.970;4.614;2023-09-19T10:02:25;22.80;70.70
17495;DHT22;8864;51.970;4.614;2023-09-19T10:04:55;22.80;70.90
17495;DHT22;8864;51.970;4.614;2023-09-19T10:07:35;22.80;71.90
17495;DHT22;8864;51.970;4.614;2023-09-19T10:10:05;22.80;71.20
17495;DHT22;8864;51.970;4.614;2023-09-19T10:12:44;22.90;71.30
17495;DHT22;8864;51.970;4.614;2023-09-19T10:15:16;22.90;71.30
17495;DHT22;8864;51.970;4.614;2023-09-19T10:17:46;22.90;71.30
17495;DHT22;8864;51.970;4.614;2023-09-19T10:20:15;22.90;71.20
17495;DHT22;8864;51.970;4.614;2023-09-19T10:23:00;22.90;71.20
17495;DHT22;8864;51.970;4.614;2023-09-19T10:25:28;22.90;71.80
17495;DHT22;8864;51.970;4.614;2023-09-19T10:27:57;22.90;71.00
17495;DHT22;8864;51.970;4.614;2023-09-19T10:30:31;22.90;70.90
17495;DHT22;8864;51.970;4.614;2023-09-19T10:33:02;22.90;70.90
17495;DHT22;8864;51.970;4.614;2023-09-19T10:35:29;22.90;70.90
17495;DHT22;8864;51.970;4.614;2023-09-19T10:37:59;23.00;70.90
17495;DHT22;8864;51.970;4.614;2023-09-19T10:40:27;22.90;70.90
17495;DHT22;8864;51.970;4.614;2023-09-19T10:43:01;22.90;70.90
17495;DHT22;8864;51.970;4.614;2023-09-19T10:45:33;22.90;70.90
17495;DHT22;8864;51.970;4.614;2023-09-19T10:48:05;23.00;71.20
17495;DHT22;8864;51.970;4.614;2023-09-19T10:50:36;23.00;71.20
17495;DHT22;8864;51.970;4.614;2023-09-19T10:53:12;23.00;71.00
17495;DHT22;8864;51.970;4.614;2023-09-19T10:55:39;23.00;71.00
17495;DHT22;8864;51.970;4.614;2023-09-19T10:58:07;23.00;70.90
17495;DHT22;8864;51.970;4.614;2023-09-19T11:00:56;23.00;70.80
17495;DHT22;8864;51.970;4.614;2023-09-19T11:03:27;23.00;70.60
17495;DHT22;8864;51.970;4.614;2023-09-19T11:06:09;23.00;70.70
17495;DHT22;8864;51.970;4.614;2023-09-19T11:08:52;23.00;70.40
17495;DHT22;8864;51.970;4.614;2023-09-19T11:11:41;23.00;70.30
17495;DHT22;8864;51.970;4.614;2023-09-19T11:14:16;23.00;70.30
17495;DHT22;8864;51.970;4.614;2023-09-19T11:20:22;23.10;70.20
17495;DHT22;8864;51.970;4.614;2023-09-19T11:23:22;23.10;70.10
17495;DHT22;8864;51.970;4.614;2023-09-19T11:25:53;23.00;70.10
17495;DHT22;8864;51.970;4.614;2023-09-19T11:28:31;23.00;70.10
17495;DHT22;8864;51.970;4.614;2023-09-19T11:30:58;23.10;70.00
17495;DHT22;8864;51.970;4.614;2023-09-19T11:33:26;23.00;69.90
17495;DHT22;8864;51.970;4.614;2023-09-19T11:36:01;23.00;69.80
17495;DHT22;8864;51.970;4.614;2023-09-19T11:38:59;23.00;69.80
17495;DHT22;8864;51.970;4.614;2023-09-19T11:41:42;23.00;69.70
17495;DHT22;8864;51.970;4.614;2023-09-19T11:44:36;23.00;69.70
17495;DHT22;8864;51.970;4.614;2023-09-19T11:47:05;23.00;69.70
17495;DHT22;8864;51.970;4.614;2023-09-19T11:49:33;23.00;69.80
17495;DHT22;8864;51.970;4.614;2023-09-19T11:52:05;23.00;69.70
17495;DHT22;8864;51.970;4.614;2023-09-19T11:54:35;23.00;69.80
17495;DHT22;8864;51.970;4.614;2023-09-19T11:57:06;23.00;69.80
17495;DHT22;8864;51.970;4.614;2023-09-19T11:59:38;23.00;69.80
17495;DHT22;8864;51.970;4.614;2023-09-19T12:02:07;23.00;69.80
17495;DHT22;8864;51.970;4.614;2023-09-19T12:04:38;23.00;70.00
17495;DHT22;8864;51.970;4.614;2023-09-19T12:07:09;23.00;70.20
17495;DHT22;8864;51.970;4.614;2023-09-19T12:09:41;23.00;70.40
17495;DHT22;8864;51.970;4.614;2023-09-19T12:12:10;23.00;70.40
17495;DHT22;8864;51.970;4.614;2023-09-19T12:14:41;23.00;70.30
17495;DHT22;8864;51.970;4.614;2023-09-19T12:17:09;23.00;70.20
17495;DHT22;8864;51.970;4.614;2023-09-19T12:19:36;23.00;70.20
17495;DHT22;8864;51.970;4.614;2023-09-19T12:22:04;23.00;70.30
17495;DHT22;8864;51.970;4.614;2023-09-19T12:24:33;23.00;70.30
17495;DHT22;8864;51.970;4.614;2023-09-19T12:27:05;23.10;70.30
17495;DHT22;8864;51.970;4.614;2023-09-19T12:29:42;23.10;70.30
17495;DHT22;8864;51.970;4.614;2023-09-19T12:32:09;23.10;70.30
17495;DHT22;8864;51.970;4.614;2023-09-19T12:34:37;23.10;70.30
17495;DHT22;8864;51.970;4.614;2023-09-19T12:37:12;23.10;70.20
17495;DHT22;8864;51.970;4.614;2023-09-19T12:39:44;23.10;70.10
17495;DHT22;8864;51.970;4.614;2023-09-19T12:42:15;23.10;70.20
17495;DHT22;8864;51.970;4.614;2023-09-19T12:44:45;23.10;70.10
17495;DHT22;8864;51.970;4.614;2023-09-19T12:47:14;23.10;70.10
17495;DHT22;8864;51.970;4.614;2023-09-19T12:50:11;23.20;70.10
17495;DHT22;8864;51.970;4.614;2023-09-19T12:52:45;23.20;70.10
17495;DHT22;8864;51.970;4.614;2023-09-19T12:55:24;23.20;70.00
17495;DHT22;8864;51.970;4.614;2023-09-19T12:58:01;23.20;70.10
17495;DHT22;8864;51.970;4.614;2023-09-19T13:00:36;23.20;70.10
17495;DHT22;8864;51.970;4.614;2023-09-19T13:03:16;23.20;70.00
17495;DHT22;8864;51.970;4.614;2023-09-19T13:05:50;23.20;70.10
17495;DHT22;8864;51.970;4.614;2023-09-19T13:08:18;23.20;70.10
17495;DHT22;8864;51.970;4.614;2023-09-19T13:11:08;23.20;70.00
17495;DHT22;8864;51.970;4.614;2023-09-19T13:13:39;23.20;70.00
17495;DHT22;8864;51.970;4.614;2023-09-19T13:16:07;23.20;70.00
17495;DHT22;8864;51.970;4.614;2023-09-19T13:18:48;23.20;70.10
17495;DHT22;8864;51.970;4.614;2023-09-19T13:21:26;23.20;70.00
17495;DHT22;8864;51.970;4.614;2023-09-19T13:23:55;23.20;70.10
17495;DHT22;8864;51.970;4.614;2023-09-19T13:26:26;23.10;70.00
17495;DHT22;8864;51.970;4.614;2023-09-19T13:28:53;23.20;70.10
17495;DHT22;8864;51.970;4.614;2023-09-19T13:31:21;23.20;70.10
17495;DHT22;8864;51.970;4.614;2023-09-19T13:33:49;23.20;70.10
17495;DHT22;8864;51.970;4.614;2023-09-19T13:36:17;23.20;70.10
17495;DHT22;8864;51.970;4.614;2023-09-19T13:38:45;23.20;70.10
17495;DHT22;8864;51.970;4.614;2023-09-19T13:41:15;23.10;70.10
17495;DHT22;8864;51.970;4.614;2023-09-19T13:43:43;23.20;70.10
17495;DHT22;8864;51.970;4.614;2023-09-19T13:46:13;23.20;70.10
17495;DHT22;8864;51.970;4.614;2023-09-19T13:48:42;23.20;70.10
17495;DHT22;8864;51.970;4.614;2023-09-19T13:51:11;23.10;70.00
17495;DHT22;8864;51.970;4.614;2023-09-19T13:53:38;23.20;70.10
17495;DHT22;8864;51.970;4.614;2023-09-19T13:56:05;23.20;70.10
17495;DHT22;8864;51.970;4.614;2023-09-19T13:58:33;23.10;70.00
17495;DHT22;8864;51.970;4.614;2023-09-19T14:01:02;23.10;70.00
17495;DHT22;8864;51.970;4.614;2023-09-19T14:03:29;23.10;70.00
17495;DHT22;8864;51.970;4.614;2023-09-19T14:05:57;23.10;70.00
17495;DHT22;8864;51.970;4.614;2023-09-19T14:08:26;23.10;70.80
17495;DHT22;8864;51.970;4.614;2023-09-19T14:10:53;23.10;70.00
17495;DHT22;8864;51.970;4.614;2023-09-19T14:13:20;23.10;70.00
17495;DHT22;8864;51.970;4.614;2023-09-19T14:15:47;23.10;70.00
17495;DHT22;8864;51.970;4.614;2023-09-19T14:18:16;23.10;70.00
17495;DHT22;8864;51.970;4.614;2023-09-19T14:20:44;23.10;70.20
17495;DHT22;8864;51.970;4.614;2023-09-19T14:23:11;23.10;70.60
17495;DHT22;8864;51.970;4.614;2023-09-19T14:25:38;23.10;70.50
17495;DHT22;8864;51.970;4.614;2023-09-19T14:28:05;23.10;70.60
17495;DHT22;8864;51.970;4.614;2023-09-19T14:30:34;23.10;70.60
17495;DHT22;8864;51.970;4.614;2023-09-19T14:33:03;23.10;70.60
17495;DHT22;8864;51.970;4.614;2023-09-19T14:35:31;23.10;70.60
17495;DHT22;8864;51.970;4.614;2023-09-19T14:37:58;23.10;70.70
17495;DHT22;8864;51.970;4.614;2023-09-19T14:40:25;23.10;70.70
17495;DHT22;8864;51.970;4.614;2023-09-19T14:42:52;23.10;70.80
17495;DHT22;8864;51.970;4.614;2023-09-19T14:45:20;23.10;70.80
17495;DHT22;8864;51.970;4.614;2023-09-19T14:47:47;23.10;70.90
17495;DHT22;8864;51.970;4.614;2023-09-19T14:50:14;23.10;70.80
17495;DHT22;8864;51.970;4.614;2023-09-19T14:52:42;23.10;70.70
17495;DHT22;8864;51.970;4.614;2023-09-19T14:55:10;23.10;70.80
17495;DHT22;8864;51.970;4.614;2023-09-19T14:57:40;23.10;70.70
17495;DHT22;8864;51.970;4.614;2023-09-19T15:00:12;23.10;70.70
17495;DHT22;8864;51.970;4.614;2023-09-19T15:02:39;23.10;70.70
17495;DHT22;8864;51.970;4.614;2023-09-19T15:05:07;23.10;70.70
17495;DHT22;8864;51.970;4.614;2023-09-19T15:07:36;23.10;70.70
17495;DHT22;8864;51.970;4.614;2023-09-19T15:10:05;23.10;70.70
17495;DHT22;8864;51.970;4.614;2023-09-19T15:12:35;23.10;70.70
17495;DHT22;8864;51.970;4.614;2023-09-19T15:15:04;23.10;71.40
17495;DHT22;8864;51.970;4.614;2023-09-19T15:17:32;23.10;70.60
17495;DHT22;8864;51.970;4.614;2023-09-19T15:20:00;23.10;70.70
17495;DHT22;8864;51.970;4.614;2023-09-19T15:22:28;23.10;70.60
17495;DHT22;8864;51.970;4.614;2023-09-19T15:24:55;23.10;70.60
17495;DHT22;8864;51.970;4.614;2023-09-19T15:27:23;23.10;70.70
17495;DHT22;8864;51.970;4.614;2023-09-19T15:29:50;23.10;70.60
17495;DHT22;8864;51.970;4.614;2023-09-19T15:32:17;23.10;70.60
17495;DHT22;8864;51.970;4.614;2023-09-19T15:34:45;23.10;70.60
17495;DHT22;8864;51.970;4.614;2023-09-19T15:37:13;23.10;70.60
17495;DHT22;8864;51.970;4.614;2023-09-19T15:39:41;23.10;70.60
17495;DHT22;8864;51.970;4.614;2023-09-19T15:42:10;23.10;70.60
17495;DHT22;8864;51.970;4.614;2023-09-19T15:44:39;23.10;70.60
17495;DHT22;8864;51.970;4.614;2023-09-19T15:47:06;23.10;70.60
17495;DHT22;8864;51.970;4.614;2023-09-19T15:49:34;23.10;70.70
17495;DHT22;8864;51.970;4.614;2023-09-19T15:52:02;23.10;70.70
17495;DHT22;8864;51.970;4.614;2023-09-19T15:54:29;23.10;70.70
17495;DHT22;8864;51.970;4.614;2023-09-19T15:56:59;23.10;70.70
17495;DHT22;8864;51.970;4.614;2023-09-19T15:59:26;23.10;70.70
17495;DHT22;8864;51.970;4.614;2023-09-19T16:01:57;23.10;70.80
17495;DHT22;8864;51.970;4.614;2023-09-19T16:04:25;23.10;70.90
17495;DHT22;8864;51.970;4.614;2023-09-19T16:06:51;23.10;70.90